sensor_id;sensor_type;location;lat;lon;timestamp;pressure;altitude;pressure_sealevel;temperature;humidity
5679;BME280;2862;52.560;13.566;2024-03-02T00:00:43;99736.06;;;8.76;100.00
5679;BME280;2862;52.560;13.566;2024-03-02T00:10:49;99729.31;;;8.92;100.00
5679;BME280;2862;52.560;13.566;2024-03-02T00:20:54;99721.91;;;8.76;100.00
5679;BME280;2862;52.560;13.566;2024-03-02T00:30:59;99711.66;;;8.62;100.00
5679;BME280;2862;52.560;13.566;2024-03-02T00:41:06;99708.16;;;8.61;100.00
5679;BME280;2862;52.560;13.566;2024-03-02T00:51:09;99704.53;;;8.62;100.00
5679;BME280;2862;52.560;13.566;2024-03-02T01:01:14;99702.81;;;8.81;100.00
5679;BME280;2862;52.560;13.566;2024-03-02T01:11:18;99707.00;;;9.02;100.00
5679;BME280;2862;52.560;13.566;2024-03-02T01:21:24;99706.06;;;8.84;100.00
5679;BME280;2862;52.560;13.566;2024-03-02T01:31:28;99692.44;;;8.87;100.00
5679;BME280;2862;52.560;13.566;2024-03-02T01:41:32;99687.66;;;8.91;100.00
5679;BME280;2862;52.560;13.566;2024-03-02T01:51:35;99670.84;;;8.90;100.00
5679;BME280;2862;52.560;13.566;2024-03-02T02:01:39;99664.09;;;8.96;100.00
5679;BME280;2862;52.560;13.566;2024-03-02T02:11:42;99650.19;;;8.92;100.00
5679;BME280;2862;52.560;13.566;2024-03-02T02:21:46;99647.84;;;8.80;100.00
5679;BME280;2862;52.560;13.566;2024-03-02T02:31:49;99650.63;;;8.88;100.00
5679;BME280;2862;52.560;13.566;2024-03-02T02:41:54;99649.66;;;8.79;100.00
5679;BME280;2862;52.560;13.566;2024-03-02T02:51:56;99660.47;;;8.68;100.00
5679;BME280;2862;52.560;13.566;2024-03-02T03:02:01;99661.88;;;8.72;100.00
5679;BME280;2862;52.560;13.566;2024-03-02T03:12:04;99656.09;;;8.86;100.00
5679;BME280;2862;52.560;13.566;2024-03-02T03:22:09;99659.03;;;8.93;100.00
5679;BME280;2862;52.560;13.566;2024-03-02T03:32:12;99655.94;;;8.97;100.00
5679;BME280;2862;52.560;13.566;2024-03-02T03:42:17;99659.97;;;9.11;100.00
5679;BME280;2862;52.560;13.566;2024-03-02T03:52:19;99649.28;;;9.11;100.00
5679;BME280;2862;52.560;13.566;2024-03-02T04:02:24;99663.78;;;9.09;100.00
5679;BME280;2862;52.560;13.566;2024-03-02T04:12:27;99664.47;;;9.11;100.00
5679;BME280;2862;52.560;13.566;2024-03-02T04:22:32;99663.47;;;9.12;100.00
5679;BME280;2862;52.560;13.566;2024-03-02T04:32:36;99667.13;;;9.11;100.00
5679;BME280;2862;52.560;13.566;2024-03-02T04:42:40;99662.91;;;9.18;100.00
5679;BME280;2862;52.560;13.566;2024-03-02T04:52:43;99681.44;;;9.19;100.00
5679;BME280;2862;52.560;13.566;2024-03-02T05:02:47;99681.72;;;9.16;100.00
5679;BME280;2862;52.560;13.566;2024-03-02T05:12:50;99689.03;;;9.14;100.00
5679;BME280;2862;52.560;13.566;2024-03-02T05:23:02;99701.38;;;9.05;100.00
5679;BME280;2862;52.560;13.566;2024-03-02T05:33:05;99718.47;;;9.22;100.00
5679;BME280;2862;52.560;13.566;2024-03-02T05:43:09;99714.44;;;9.18;100.00
5679;BME280;2862;52.560;13.566;2024-03-02T05:53:13;99734.94;;;9.18;100.00
5679;BME280;2862;52.560;13.566;2024-03-02T06:03:18;99732.94;;;9.20;100.00
5679;BME280;2862;52.560;13.566;2024-03-02T06:13:21;99740.94;;;9.20;100.00
5679;BME280;2862;52.560;13.566;2024-03-02T06:23:26;99735.19;;;9.15;100.00
5679;BME280;2862;52.560;13.566;2024-03-02T06:33:29;99742.06;;;9.17;100.00
5679;BME280;2862;52.560;13.566;2024-03-02T06:43:33;99758.88;;;9.37;100.00
5679;BME280;2862;52.560;13.566;2024-03-02T06:53:36;99763.63;;;9.53;100.00
5679;BME280;2862;52.560;13.566;2024-03-02T07:03:40;99764.72;;;9.60;100.00
5679;BME280;2862;52.560;13.566;2024-03-02T07:13:44;99772.63;;;9.52;100.00
5679;BME280;2862;52.560;13.566;2024-03-02T07:23:48;99782.03;;;9.46;100.00
5679;BME280;2862;52.560;13.566;2024-03-02T07:33:51;99794.41;;;9.47;100.00
5679;BME280;2862;52.560;13.566;2024-03-02T07:43:56;99809.72;;;9.92;100.00
5679;BME280;2862;52.560;13.566;2024-03-02T07:53:58;99827.94;;;9.69;100.00
5679;BME280;2862;52.560;13.566;2024-03-02T08:04:03;99844.31;;;9.84;100.00
5679;BME280;2862;52.560;13.566;2024-03-02T08:14:06;99840.56;;;9.67;100.00
5679;BME280;2862;52.560;13.566;2024-03-02T08:24:10;99846.72;;;9.68;100.00
5679;BME280;2862;52.560;13.566;2024-03-02T08:34:13;99857.63;;;9.94;100.00
5679;BME280;2862;52.560;13.566;2024-03-02T08:44:17;99862.81;;;9.95;100.00
5679;BME280;2862;52.560;13.566;2024-03-02T08:54:20;99866.34;;;9.96;100.00
5679;BME280;2862;52.560;13.566;2024-03-02T09:04:24;99866.75;;;9.91;100.00
5679;BME280;2862;52.560;13.566;2024-03-02T09:14:27;99883.88;;;10.08;100.00
5679;BME280;2862;52.560;13.566;2024-03-02T09:24:31;99879.06;;;10.21;100.00
5679;BME280;2862;52.560;13.566;2024-03-02T09:34:35;99879.38;;;10.55;100.00
5679;BME280;2862;52.560;13.566;2024-03-02T09:44:39;99886.41;;;11.02;100.00
5679;BME280;2862;52.560;13.566;2024-03-02T09:54:42;99874.25;;;12.05;100.00
5679;BME280;2862;52.560;13.566;2024-03-02T10:04:48;99894.00;;;12.30;100.00
5679;BME280;2862;52.560;13.566;2024-03-02T10:15:03;99897.31;;;12.58;100.00
5679;BME280;2862;52.560;13.566;2024-03-02T10:25:28;99889.66;;;12.29;100.00
5679;BME280;2862;52.560;13.566;2024-03-02T10:35:32;99879.19;;;12.17;100.00
5679;BME280;2862;52.560;13.566;2024-03-02T10:45:41;99874.69;;;12.26;99.48
5679;BME280;2862;52.560;13.566;2024-03-02T10:55:46;99883.28;;;12.30;100.00
5679;BME280;2862;52.560;13.566;2024-03-02T11:05:57;99882.47;;;12.37;97.96
5679;BME280;2862;52.560;13.566;2024-03-02T11:16:05;99879.84;;;12.45;97.14
5679;BME280;2862;52.560;13.566;2024-03-02T11:26:19;99881.84;;;12.86;94.37
5679;BME280;2862;52.560;13.566;2024-03-02T11:36:22;99878.81;;;12.81;93.27
5679;BME280;2862;52.560;13.566;2024-03-02T11:46:26;99876.88;;;12.57;91.46
5679;BME280;2862;52.560;13.566;2024-03-02T11:56:30;99879.50;;;12.91;94.92
5679;BME280;2862;52.560;13.566;2024-03-02T12:06:35;99873.84;;;13.02;87.83
5679;BME280;2862;52.560;13.566;2024-03-02T12:16:38;99874.84;;;13.17;85.57
5679;BME280;2862;52.560;13.566;2024-03-02T12:26:47;99869.91;;;13.31;84.52
5679;BME280;2862;52.560;13.566;2024-03-02T12:36:51;99864.78;;;13.03;83.85
5679;BME280;2862;52.560;13.566;2024-03-02T12:46:56;99857.97;;;13.25;83.74
5679;BME280;2862;52.560;13.566;2024-03-02T12:56:59;99852.59;;;13.66;81.16
5679;BME280;2862;52.560;13.566;2024-03-02T13:07:04;99843.50;;;13.91;77.61
5679;BME280;2862;52.560;13.566;2024-03-02T13:17:08;99844.81;;;14.03;76.13
5679;BME280;2862;52.560;13.566;2024-03-02T13:27:12;99835.03;;;14.19;76.03
5679;BME280;2862;52.560;13.566;2024-03-02T13:37:15;99833.53;;;14.08;76.33
5679;BME280;2862;52.560;13.566;2024-03-02T13:47:19;99826.94;;;14.27;74.15
5679;BME280;2862;52.560;13.566;2024-03-02T13:57:23;99832.84;;;14.14;74.74
5679;BME280;2862;52.560;13.566;2024-03-02T14:07:28;99831.59;;;13.94;74.63
5679;BME280;2862;52.560;13.566;2024-03-02T14:17:31;99837.47;;;13.65;75.45
5679;BME280;2862;52.560;13.566;2024-03-02T14:27:35;99837.00;;;13.45;72.60
5679;BME280;2862;52.560;13.566;2024-03-02T14:37:38;99836.81;;;13.30;73.04
5679;BME280;2862;52.560;13.566;2024-03-02T14:47:42;99832.81;;;13.26;73.04
5679;BME280;2862;52.560;13.566;2024-03-02T14:57:45;99836.50;;;13.33;75.35
5679;BME280;2862;52.560;13.566;2024-03-02T15:07:49;99824.03;;;13.16;84.26
5679;BME280;2862;52.560;13.566;2024-03-02T15:17:52;99844.78;;;12.81;87.58
5679;BME280;2862;52.560;13.566;2024-03-02T15:27:57;99847.22;;;12.58;86.63
5679;BME280;2862;52.560;13.566;2024-03-02T15:38:00;99841.78;;;12.42;86.99
5679;BME280;2862;52.560;13.566;2024-03-02T15:48:06;99840.88;;;12.25;91.90
5679;BME280;2862;52.560;13.566;2024-03-02T15:58:09;99838.63;;;12.12;93.45
5679;BME280;2862;52.560;13.566;2024-03-02T16:08:13;99840.19;;;11.97;94.28
5679;BME280;2862;52.560;13.566;2024-03-02T16:18:16;99839.19;;;11.98;93.77
5679;BME280;2862;52.560;13.566;2024-03-02T16:28:21;99846.72;;;11.94;94.41
5679;BME280;2862;52.560;13.566;2024-03-02T16:38:24;99847.56;;;11.95;93.96
5679;BME280;2862;52.560;13.566;2024-03-02T16:48:28;99858.91;;;11.89;93.49
5679;BME280;2862;52.560;13.566;2024-03-02T16:58:31;99852.72;;;11.88;93.74
5679;BME280;2862;52.560;13.566;2024-03-02T17:08:35;99856.75;;;11.75;94.65
5679;BME280;2862;52.560;13.566;2024-03-02T17:18:38;99875.75;;;11.63;96.14
5679;BME280;2862;52.560;13.566;2024-03-02T17:28:43;99878.44;;;11.63;96.85
5679;BME280;2862;52.560;13.566;2024-03-02T17:38:47;99879.53;;;11.53;97.97
5679;BME280;2862;52.560;13.566;2024-03-02T17:48:51;99892.63;;;11.38;99.58
5679;BME280;2862;52.560;13.566;2024-03-02T17:58:54;99899.50;;;11.23;100.00
5679;BME280;2862;52.560;13.566;2024-03-02T18:08:59;99906.38;;;11.07;100.00
5679;BME280;2862;52.560;13.566;2024-03-02T18:19:03;99896.63;;;11.06;100.00
5679;BME280;2862;52.560;13.566;2024-03-02T18:29:07;99897.63;;;11.05;100.00
5679;BME280;2862;52.560;13.566;2024-03-02T18:39:10;99898.34;;;11.07;100.00
5679;BME280;2862;52.560;13.566;2024-03-02T18:49:14;99896.44;;;11.17;100.00
5679;BME280;2862;52.560;13.566;2024-03-02T18:59:17;99885.03;;;11.33;100.00
5679;BME280;2862;52.560;13.566;2024-03-02T19:09:22;99881.75;;;11.22;100.00
5679;BME280;2862;52.560;13.566;2024-03-02T19:19:25;99881.81;;;11.12;100.00
5679;BME280;2862;52.560;13.566;2024-03-02T19:29:29;99878.06;;;11.05;100.00
5679;BME280;2862;52.560;13.566;2024-03-02T19:39:32;99869.81;;;10.98;100.00
5679;BME280;2862;52.560;13.566;2024-03-02T19:49:39;99863.66;;;10.70;100.00
5679;BME280;2862;52.560;13.566;2024-03-02T19:59:42;99857.41;;;10.61;100.00
5679;BME280;2862;52.560;13.566;2024-03-02T20:09:46;99855.75;;;10.51;100.00
5679;BME280;2862;52.560;13.566;2024-03-02T20:19:51;99852.88;;;10.34;100.00
5679;BME280;2862;52.560;13.566;2024-03-02T20:29:56;99855.44;;;10.26;100.00
5679;BME280;2862;52.560;13.566;2024-03-02T20:39:59;99854.03;;;10.22;100.00
5679;BME280;2862;52.560;13.566;2024-03-02T20:50:04;99846.13;;;10.30;100.00
5679;BME280;2862;52.560;13.566;2024-03-02T21:00:09;99851.69;;;10.09;100.00
5679;BME280;2862;52.560;13.566;2024-03-02T21:10:13;99833.09;;;10.18;100.00
5679;BME280;2862;52.560;13.566;2024-03-02T21:20:16;99842.63;;;10.20;100.00
5679;BME280;2862;52.560;13.566;2024-03-02T21:30:20;99838.63;;;10.06;100.00
5679;BME280;2862;52.560;13.566;2024-03-02T21:40:23;99831.59;;;10.05;100.00
5679;BME280;2862;52.560;13.566;2024-03-02T21:50:27;99829.94;;;9.95;100.00
5679;BME280;2862;52.560;13.566;2024-03-02T22:00:31;99830.28;;;9.82;100.00
5679;BME280;2862;52.560;13.566;2024-03-02T22:10:38;99818.50;;;9.75;100.00
5679;BME280;2862;52.560;13.566;2024-03-02T22:20:41;99819.28;;;9.85;100.00
5679;BME280;2862;52.560;13.566;2024-03-02T22:30:45;99812.97;;;9.86;100.00
5679;BME280;2862;52.560;13.566;2024-03-02T22:40:48;99803.50;;;9.64;100.00
5679;BME280;2862;52.560;13.566;2024-03-02T22:50:53;99798.00;;;9.56;100.00
5679;BME280;2862;52.560;13.566;2024-03-02T23:00:56;99801.78;;;9.63;100.00
5679;BME280;2862;52.560;13.566;2024-03-02T23:11:01;99792.81;;;9.54;100.00
5679;BME280;2862;52.560;13.566;2024-03-02T23:21:04;99790.16;;;9.45;100.00
5679;BME280;2862;52.560;13.566;2024-03-02T23:31:09;99776.56;;;9.38;100.00
5679;BME280;2862;52.560;13.566;2024-03-02T23:41:12;99786.13;;;9.21;100.00
5679;BME280;2862;52.560;13.566;2024-03-02T23:51:18;99788.38;;;9.16;100.00
